Time;durP1;ratioP1;P1;durP2;ratioP2;P2;SDS_P1;SDS_P2;PMS_P1;PMS_P2;Temp;Humidity;BMP_temperature;BMP_pressure;BME280_temperature;BME280_humidity;BME280_pressure;Samples;Min_cycle;Max_cycle;Signal;HPM_P1;HPM_P2
2021/12/20 00:02:08;;;;;;;1.15;0.60;;;8.20;47.30;;;;;;5038795;28;20189;-48
2021/12/20 00:04:36;;;;;;;1.63;0.45;;;8.10;47.30;;;;;;5038874;28;20169;-48
2021/12/20 00:07:04;;;;;;;2.17;1.80;;;8.10;47.40;;;;;;5055176;28;20173;-48
2021/12/20 00:09:32;;;;;;;1.85;0.85;;;8.10;47.10;;;;;;5054936;28;20599;-48
2021/12/20 00:12:00;;;;;;;1.10;0.65;;;8.10;47.10;;;;;;5054767;28;20637;-48
2021/12/20 00:14:27;;;;;;;1.20;0.52;;;8.00;47.00;;;;;;5021975;28;20190;-47
2021/12/20 00:16:55;;;;;;;1.52;0.63;;;8.00;46.70;;;;;;5038501;28;20244;-48
2021/12/20 00:19:25;;;;;;;2.03;0.63;;;8.00;47.30;;;;;;5054716;28;20247;-48
2021/12/20 00:21:53;;;;;;;1.63;0.70;;;8.00;46.90;;;;;;5055913;28;20194;-47
2021/12/20 00:24:20;;;;;;;1.35;0.68;;;7.90;46.70;;;;;;5038517;28;20170;-48
2021/12/20 00:26:47;;;;;;;1.33;0.73;;;7.90;46.70;;;;;;5038015;28;20169;-48
2021/12/20 00:29:15;;;;;;;1.20;0.68;;;7.90;46.80;;;;;;5054836;28;20165;-48
2021/12/20 00:31:42;;;;;;;1.15;0.60;;;8.00;46.70;;;;;;5055383;28;20599;-48
2021/12/20 00:34:10;;;;;;;4.50;0.95;;;7.90;46.70;;;;;;5055331;28;20610;-48
2021/12/20 00:36:37;;;;;;;1.10;0.40;;;7.90;46.50;;;;;;5055310;28;20165;-48
2021/12/20 00:41:50;;;;;;;1.60;0.75;;;7.90;46.40;;;;;;5054892;28;20350;-48
2021/12/20 00:44:18;;;;;;;7.57;0.60;;;7.80;46.10;;;;;;5054300;28;20169;-48
2021/12/20 00:46:45;;;;;;;1.40;0.63;;;7.70;46.10;;;;;;5052385;28;20532;-48
2021/12/20 00:49:12;;;;;;;1.27;0.70;;;7.70;45.80;;;;;;5018145;28;20629;-48
2021/12/20 00:51:42;;;;;;;1.00;0.40;;;7.60;45.50;;;;;;5035416;28;20288;-48
2021/12/20 00:54:10;;;;;;;1.23;0.70;;;7.50;45.90;;;;;;5035121;28;20198;-48
2021/12/20 00:56:37;;;;;;;2.20;0.40;;;7.50;46.20;;;;;;5034911;28;20170;-48
2021/12/20 00:59:05;;;;;;;1.85;0.93;;;7.50;46.40;;;;;;5034976;28;20189;-48
2021/12/20 01:01:32;;;;;;;2.90;1.25;;;7.50;46.20;;;;;;5035351;28;20193;-48
2021/12/20 01:04:00;;;;;;;1.05;0.30;;;7.40;46.20;;;;;;5018025;28;20221;-48
2021/12/20 01:06:27;;;;;;;10.68;0.98;;;7.40;46.30;;;;;;5001702;28;20610;-48
2021/12/20 01:08:54;;;;;;;1.52;0.88;;;7.40;46.10;;;;;;5017900;28;20246;-48
2021/12/20 01:11:25;;;;;;;1.15;0.68;;;7.30;46.40;;;;;;5017674;28;20198;-48
2021/12/20 01:13:54;;;;;;;1.10;0.30;;;7.30;46.30;;;;;;5001802;28;20232;-48
2021/12/20 01:16:31;;;;;;;1.00;0.40;;;7.30;46.20;;;;;;5002153;28;20177;-48
2021/12/20 01:19:00;;;;;;;1.20;0.40;;;7.30;46.10;;;;;;5017574;28;20170;-48
2021/12/20 01:21:29;;;;;;;1.10;0.45;;;7.30;46.30;;;;;;5034565;28;20217;-48
2021/12/20 01:23:57;;;;;;;4.70;0.90;;;7.30;46.10;;;;;;5034582;28;20197;-48
2021/12/20 01:26:25;;;;;;;1.50;0.50;;;7.20;45.80;;;;;;5034686;28;20162;-48
2021/12/20 01:28:53;;;;;;;1.00;0.30;;;7.20;46.00;;;;;;4985445;28;20166;-48
2021/12/20 01:31:21;;;;;;;1.00;0.30;;;7.20;45.80;;;;;;5017435;28;20174;-48
2021/12/20 01:33:48;;;;;;;3.83;0.77;;;7.10;45.90;;;;;;5017718;28;20528;-48
2021/12/20 01:36:15;;;;;;;1.50;0.55;;;7.10;45.90;;;;;;5001284;28;20599;-48
2021/12/20 01:38:43;;;;;;;1.10;0.40;;;7.10;45.90;;;;;;5001485;28;20189;-48
2021/12/20 01:41:11;;;;;;;2.55;0.70;;;7.10;45.40;;;;;;5017206;28;20574;-48
2021/12/20 01:43:38;;;;;;;2.10;0.68;;;7.00;45.20;;;;;;5017343;28;20170;-48
2021/12/20 01:46:06;;;;;;;1.05;0.38;;;7.00;45.40;;;;;;5034432;28;20173;-48
2021/12/20 01:48:35;;;;;;;2.45;0.45;;;7.00;45.30;;;;;;5030303;28;20216;-48
2021/12/20 01:51:28;;;;;;;1.00;0.30;;;7.00;45.30;;;;;;5054684;28;20173;-48
2021/12/20 01:53:50;;;;;;;1.45;0.73;;;6.90;45.30;;;;;;5053639;28;20560;-48
2021/12/20 01:56:17;;;;;;;1.10;0.43;;;6.90;45.30;;;;;;5054860;28;20165;-48
2021/12/20 01:58:45;;;;;;;1.00;0.30;;;6.80;45.20;;;;;;5053925;28;20588;-48
2021/12/20 02:03:46;;;;;;;2.20;1.02;;;6.80;44.80;;;;;;5053557;28;20267;-48
2021/12/20 02:06:23;;;;;;;0.98;0.30;;;6.70;45.00;;;;;;5053425;28;20627;-48
2021/12/20 02:08:50;;;;;;;1.00;0.30;;;6.70;44.70;;;;;;5073525;28;20269;-48
2021/12/20 02:11:20;;;;;;;1.00;0.30;;;6.70;44.70;;;;;;5041064;28;20200;-48
2021/12/20 02:13:48;;;;;;;1.58;1.45;;;6.60;44.80;;;;;;5057202;28;20200;-48
2021/12/20 02:16:15;;;;;;;1.40;0.57;;;6.60;44.80;;;;;;5057180;28;20672;-48
2021/12/20 02:18:42;;;;;;;1.10;0.60;;;6.60;44.80;;;;;;5058086;28;20234;-48
2021/12/20 02:21:10;;;;;;;1.05;0.38;;;6.60;44.60;;;;;;5057982;28;20208;-48
2021/12/20 02:23:38;;;;;;;1.10;0.65;;;6.50;44.50;;;;;;5058079;28;20161;-48
2021/12/20 02:26:06;;;;;;;1.00;0.30;;;6.50;44.60;;;;;;5058146;28;20193;-48
2021/12/20 02:28:41;;;;;;;1.00;0.30;;;6.40;44.70;;;;;;5040591;28;20169;-48
2021/12/20 02:39:20;;;;;;;1.48;0.40;;;6.30;45.00;;;;;;5057972;28;20184;-48
2021/12/20 02:41:47;;;;;;;1.00;0.32;;;6.20;44.80;;;;;;5057380;28;20203;-48
2021/12/20 02:44:19;;;;;;;1.65;1.17;;;6.20;44.70;;;;;;5057483;28;20566;-48
2021/12/20 02:47:05;;;;;;;1.15;0.40;;;6.10;44.90;;;;;;5054978;28;20476;-48
2021/12/20 02:49:34;;;;;;;1.30;0.55;;;6.10;45.20;;;;;;5022585;28;20180;-48
2021/12/20 02:52:07;;;;;;;1.10;0.50;;;6.10;45.30;;;;;;5037291;28;20166;-48
2021/12/20 02:54:36;;;;;;;4.32;1.30;;;6.10;45.40;;;;;;5020247;28;20162;-48
2021/12/20 02:57:04;;;;;;;1.10;0.40;;;6.00;45.40;;;;;;5037423;28;20261;-48
2021/12/20 02:59:31;;;;;;;1.65;0.40;;;6.00;45.40;;;;;;5003894;28;20170;-48
2021/12/20 03:02:05;;;;;;;1.00;0.38;;;6.00;45.40;;;;;;5003303;28;20712;-48
2021/12/20 03:04:33;;;;;;;1.00;0.50;;;6.00;45.30;;;;;;5037543;28;20257;-48
2021/12/20 03:07:11;;;;;;;1.10;0.50;;;6.00;45.40;;;;;;5019818;28;20166;-48
2021/12/20 03:09:43;;;;;;;1.00;0.30;;;5.90;45.40;;;;;;5020648;28;20234;-48
2021/12/20 03:12:13;;;;;;;1.05;0.30;;;5.90;45.60;;;;;;5037630;28;20185;-48
2021/12/20 03:14:47;;;;;;;1.00;0.30;;;5.90;45.70;;;;;;5037009;28;20159;-48
2021/12/20 03:17:15;;;;;;;1.10;0.30;;;5.90;45.70;;;;;;5036776;28;20178;-48
2021/12/20 03:19:42;;;;;;;1.10;0.45;;;5.90;45.70;;;;;;5035792;28;20173;-48
2021/12/20 03:22:10;;;;;;;1.30;0.60;;;5.80;45.60;;;;;;5019589;28;20249;-48
2021/12/20 03:24:37;;;;;;;1.10;0.50;;;5.80;45.60;;;;;;5019656;28;20635;-48
2021/12/20 03:27:06;;;;;;;1.98;1.10;;;5.80;45.60;;;;;;5036693;28;20173;-48
2021/12/20 03:29:33;;;;;;;1.25;0.55;;;5.80;45.80;;;;;;5036634;28;20227;-48
2021/12/20 03:32:00;;;;;;;1.00;0.30;;;5.80;45.90;;;;;;5036593;28;20170;-48
2021/12/20 03:34:27;;;;;;;2.65;0.55;;;5.80;46.00;;;;;;5019623;28;20608;-48
2021/12/20 03:36:55;;;;;;;2.00;0.70;;;5.80;46.00;;;;;;5036682;28;20170;-48
2021/12/20 03:39:22;;;;;;;1.02;0.43;;;5.80;46.60;;;;;;5036475;28;20178;-48
2021/12/20 03:41:49;;;;;;;1.63;1.08;;;5.80;45.90;;;;;;5036449;28;20284;-48
2021/12/20 03:44:17;;;;;;;1.00;0.30;;;5.80;45.90;;;;;;5019282;28;20323;-48
2021/12/20 03:46:45;;;;;;;1.00;0.32;;;5.80;46.00;;;;;;5019026;28;20222;-49
2021/12/20 03:49:12;;;;;;;2.10;0.68;;;5.80;46.00;;;;;;5036320;28;20158;-48
2021/12/20 03:51:40;;;;;;;1.20;0.52;;;5.80;45.90;;;;;;5036272;28;20313;-48
2021/12/20 03:54:07;;;;;;;1.10;0.60;;;5.80;46.70;;;;;;5036199;28;20711;-48
2021/12/20 03:56:35;;;;;;;1.90;1.13;;;5.80;45.90;;;;;;5018964;28;20184;-48
2021/12/20 03:59:02;;;;;;;1.10;0.45;;;5.80;45.90;;;;;;5018873;28;20227;-48
2021/12/20 04:01:30;;;;;;;1.10;0.52;;;5.80;45.80;;;;;;5036004;28;20527;-48
2021/12/20 04:04:00;;;;;;;1.10;0.43;;;5.70;45.80;;;;;;5035956;28;20154;-47
2021/12/20 04:06:31;;;;;;;1.60;1.15;;;5.70;45.70;;;;;;5035977;28;20395;-47
2021/12/20 04:08:59;;;;;;;3.45;0.93;;;5.70;45.80;;;;;;5035854;28;20257;-48
2021/12/20 04:11:27;;;;;;;9.02;1.27;;;5.60;45.90;;;;;;5035839;28;20631;-48
2021/12/20 04:13:56;;;;;;;1.10;0.50;;;5.60;46.70;;;;;;5035822;28;20224;-48
2021/12/20 04:16:23;;;;;;;1.05;0.40;;;5.60;46.20;;;;;;5019084;28;20174;-48
2021/12/20 04:18:51;;;;;;;2.25;0.45;;;5.50;46.40;;;;;;5018481;28;20488;-48
2021/12/20 04:21:18;;;;;;;3.85;0.80;;;5.50;46.40;;;;;;5018383;28;20212;-48
2021/12/20 04:23:46;;;;;;;1.10;0.50;;;5.50;46.40;;;;;;5018281;28;20685;-48
2021/12/20 04:26:13;;;;;;;1.00;0.30;;;5.50;46.40;;;;;;5035722;28;20162;-48
2021/12/20 04:28:41;;;;;;;1.00;0.30;;;5.50;46.50;;;;;;5018424;28;20656;-48
2021/12/20 04:31:08;;;;;;;2.03;1.15;;;5.50;46.40;;;;;;5035022;28;20178;-48
2021/12/20 04:33:36;;;;;;;1.00;0.30;;;5.50;46.90;;;;;;5035486;28;20626;-48
2021/12/20 04:36:04;;;;;;;1.23;0.40;;;5.50;46.20;;;;;;5035685;28;20173;-48
2021/12/20 04:38:31;;;;;;;3.38;1.00;;;5.50;46.20;;;;;;5018156;28;20166;-48
2021/12/20 04:40:59;;;;;;;1.52;1.27;;;5.50;46.30;;;;;;5035254;28;20705;-48
2021/12/20 04:43:26;;;;;;;1.10;0.30;;;5.40;46.40;;;;;;5035393;28;20293;-48
2021/12/20 04:45:54;;;;;;;1.00;0.40;;;5.40;46.40;;;;;;5017851;28;20166;-47
2021/12/20 04:48:21;;;;;;;1.40;0.50;;;5.40;46.50;;;;;;5035037;28;20665;-48
2021/12/20 04:50:49;;;;;;;1.00;0.30;;;5.40;46.40;;;;;;5017910;28;20171;-48
2021/12/20 04:53:17;;;;;;;3.50;0.85;;;5.40;46.50;;;;;;5001422;28;20228;-47
2021/12/20 04:55:44;;;;;;;1.10;0.50;;;5.40;46.50;;;;;;5035326;28;20162;-47
2021/12/20 04:58:12;;;;;;;1.10;0.35;;;5.30;47.40;;;;;;5035251;28;20190;-48
2021/12/20 05:00:40;;;;;;;1.45;0.50;;;5.40;46.60;;;;;;5017981;28;20528;-47
2021/12/20 05:03:08;;;;;;;1.00;0.40;;;5.40;46.50;;;;;;5017995;28;20216;-48
2021/12/20 05:05:36;;;;;;;1.33;0.55;;;5.40;46.50;;;;;;5035083;28;20162;-48
2021/12/20 05:08:05;;;;;;;1.20;0.55;;;5.30;46.50;;;;;;5034898;28;20158;-48
2021/12/20 05:10:34;;;;;;;1.00;0.40;;;5.40;46.40;;;;;;5018117;28;20162;-48
2021/12/20 05:13:09;;;;;;;1.00;0.30;;;5.30;46.40;;;;;;5034703;28;20174;-48
2021/12/20 05:15:38;;;;;;;1.00;0.30;;;5.20;46.40;;;;;;5018429;28;20499;-48
2021/12/20 05:18:08;;;;;;;1.10;0.50;;;5.20;46.70;;;;;;5034695;28;20223;-48
2021/12/20 05:20:36;;;;;;;1.20;0.63;;;5.20;46.70;;;;;;5000983;28;20269;-48
2021/12/20 05:23:04;;;;;;;1.10;0.50;;;5.20;46.80;;;;;;5034675;28;20201;-48
2021/12/20 05:25:32;;;;;;;1.40;0.60;;;5.10;46.80;;;;;;5017644;28;20217;-48
2021/12/20 05:28:00;;;;;;;1.65;0.63;;;5.20;46.80;;;;;;5017558;28;20570;-48
2021/12/20 05:30:27;;;;;;;1.10;0.60;;;5.20;46.60;;;;;;5034834;28;20214;-48
2021/12/20 05:32:55;;;;;;;3.58;1.20;;;5.10;46.70;;;;;;5017437;28;20177;-48
2021/12/20 05:35:23;;;;;;;1.20;0.75;;;5.10;46.80;;;;;;5034684;28;20174;-48
2021/12/20 05:37:51;;;;;;;1.10;0.50;;;5.10;46.80;;;;;;5035374;28;20177;-47
2021/12/20 05:40:18;;;;;;;1.00;0.40;;;5.20;46.70;;;;;;5001632;28;20185;-48
2021/12/20 05:42:48;;;;;;;1.65;0.60;;;5.10;46.50;;;;;;5036194;28;20190;-48
2021/12/20 05:45:16;;;;;;;1.10;0.43;;;5.10;46.60;;;;;;5021695;28;20169;-48
2021/12/20 05:47:44;;;;;;;1.25;0.75;;;5.10;46.60;;;;;;5036253;28;20209;-48
2021/12/20 05:50:12;;;;;;;1.58;0.50;;;5.10;46.60;;;;;;5058566;28;20158;-48
2021/12/20 05:52:40;;;;;;;1.58;0.70;;;5.10;46.50;;;;;;5058236;28;20506;-48
2021/12/20 05:55:09;;;;;;;1.00;0.40;;;5.10;46.60;;;;;;5057321;28;20172;-48
2021/12/20 05:57:37;;;;;;;1.00;0.40;;;5.10;46.80;;;;;;5058246;28;20166;-48
2021/12/20 06:00:09;;;;;;;1.00;0.30;;;5.10;46.80;;;;;;5058181;28;20550;-48
2021/12/20 06:02:36;;;;;;;1.10;0.60;;;5.10;46.50;;;;;;5057584;28;20189;-48
2021/12/20 06:05:05;;;;;;;1.00;0.35;;;5.10;46.50;;;;;;5057493;28;20238;-47
2021/12/20 06:07:33;;;;;;;1.00;0.40;;;5.10;46.40;;;;;;5057215;28;20264;-48
2021/12/20 06:10:00;;;;;;;1.00;0.28;;;5.10;46.60;;;;;;5040839;28;20172;-48
2021/12/20 06:12:28;;;;;;;1.13;0.60;;;5.10;46.50;;;;;;5057982;28;20165;-47
2021/12/20 06:14:55;;;;;;;1.20;0.60;;;5.10;46.50;;;;;;5058229;28;20169;-48
2021/12/20 06:17:23;;;;;;;1.10;0.70;;;5.10;46.50;;;;;;5057214;28;20173;-48
2021/12/20 06:19:50;;;;;;;1.38;1.25;;;5.10;46.50;;;;;;5058094;28;20165;-48
2021/12/20 06:22:18;;;;;;;1.85;0.52;;;5.10;46.40;;;;;;5057690;28;20669;-48
2021/12/20 06:24:45;;;;;;;1.00;0.30;;;5.10;46.30;;;;;;5057839;28;20536;-48
2021/12/20 06:27:13;;;;;;;1.20;0.50;;;5.10;46.30;;;;;;5057835;28;20491;-48
2021/12/20 06:29:40;;;;;;;1.20;0.60;;;5.10;46.40;;;;;;5056985;28;20166;-48
2021/12/20 06:32:08;;;;;;;2.20;0.90;;;5.10;46.40;;;;;;5057720;28;20255;-48
2021/12/20 06:34:35;;;;;;;1.45;1.13;;;5.20;46.40;;;;;;5056683;28;20241;-48
2021/12/20 06:37:03;;;;;;;1.20;0.90;;;5.20;46.20;;;;;;5057465;28;20179;-48
2021/12/20 06:39:31;;;;;;;2.38;1.20;;;5.20;46.20;;;;;;5056806;28;20502;-48
2021/12/20 06:41:59;;;;;;;10.68;1.00;;;5.10;46.20;;;;;;5057782;28;20193;-48
2021/12/20 06:44:26;;;;;;;0.98;0.40;;;5.20;46.10;;;;;;5057457;28;20193;-48
2021/12/20 06:46:54;;;;;;;1.38;1.10;;;5.10;46.90;;;;;;5054225;28;20193;-48
2021/12/20 06:49:22;;;;;;;0.90;0.20;;;5.10;46.20;;;;;;5020442;28;20158;-48
2021/12/20 06:51:52;;;;;;;1.70;1.05;;;5.10;46.20;;;;;;5003958;28;20174;-48
2021/12/20 06:54:19;;;;;;;2.05;0.60;;;5.10;46.20;;;;;;5037187;28;20227;-48
2021/12/20 06:56:47;;;;;;;1.10;0.70;;;5.10;46.20;;;;;;5020163;28;20224;-48
2021/12/20 06:59:14;;;;;;;2.22;1.23;;;5.10;46.20;;;;;;5037131;28;20197;-48
2021/12/20 07:01:42;;;;;;;1.02;0.45;;;5.00;46.20;;;;;;5003215;28;20600;-48
2021/12/20 07:04:12;;;;;;;1.23;0.60;;;5.10;46.40;;;;;;5020242;28;20662;-48
2021/12/20 07:06:39;;;;;;;1.10;0.70;;;5.10;46.40;;;;;;5037092;28;20183;-48
2021/12/20 07:09:07;;;;;;;1.20;0.50;;;5.10;46.40;;;;;;5037040;28;20158;-48
2021/12/20 07:11:35;;;;;;;2.05;1.02;;;5.10;46.30;;;;;;5003583;28;20654;-48
2021/12/20 07:14:02;;;;;;;6.07;0.80;;;5.00;46.30;;;;;;5036892;28;20205;-48
2021/12/20 07:16:32;;;;;;;1.00;0.30;;;4.90;46.40;;;;;;5036980;28;20204;-48
2021/12/20 07:19:01;;;;;;;1.55;0.45;;;4.90;46.70;;;;;;5003614;28;20166;-48
2021/12/20 07:21:28;;;;;;;2.08;0.63;;;4.90;46.70;;;;;;5019382;28;20198;-48
2021/12/20 07:23:56;;;;;;;1.33;0.68;;;5.00;46.60;;;;;;5036860;28;20213;-48
2021/12/20 07:26:24;;;;;;;3.75;1.27;;;5.00;46.60;;;;;;5037070;28;20166;-47
2021/12/20 07:28:52;;;;;;;1.08;0.50;;;5.10;46.60;;;;;;5036938;28;20159;-48
2021/12/20 07:31:21;;;;;;;7.95;0.70;;;5.10;46.60;;;;;;5019475;28;20174;-48
2021/12/20 07:33:49;;;;;;;2.33;1.13;;;5.10;46.50;;;;;;5019693;28;20257;-48
2021/12/20 07:36:21;;;;;;;12.80;1.10;;;5.10;46.50;;;;;;5019620;28;20253;-48
2021/12/20 07:38:49;;;;;;;3.30;0.98;;;5.20;46.50;;;;;;5003354;28;20170;-48
2021/12/20 07:41:20;;;;;;;1.25;0.35;;;5.20;46.40;;;;;;5036505;28;20190;-48
2021/12/20 07:43:49;;;;;;;1.20;0.47;;;5.20;46.40;;;;;;5036478;28;20603;-48
2021/12/20 07:46:18;;;;;;;1.40;0.52;;;5.20;46.30;;;;;;5019153;28;20477;-48
2021/12/20 07:48:46;;;;;;;1.20;0.55;;;5.20;46.20;;;;;;5050841;28;20209;-48
2021/12/20 07:51:13;;;;;;;1.00;0.32;;;5.20;46.20;;;;;;5022454;28;20177;-48
2021/12/20 07:53:42;;;;;;;1.00;0.40;;;5.20;46.30;;;;;;5055212;28;20203;-48
2021/12/20 07:56:10;;;;;;;1.10;0.50;;;5.20;46.30;;;;;;5055391;28;20606;-48
2021/12/20 07:58:38;;;;;;;1.40;0.90;;;5.20;46.40;;;;;;5056072;28;20180;-48
2021/12/20 08:01:06;;;;;;;2.35;1.02;;;5.30;46.40;;;;;;5055324;28;20169;-48
2021/12/20 08:03:38;;;;;;;3.25;1.23;;;5.30;46.20;;;;;;5055903;28;20161;-48
2021/12/20 08:06:06;;;;;;;1.00;0.40;;;5.30;46.20;;;;;;5055198;28;20541;-48
2021/12/20 08:08:34;;;;;;;4.15;0.70;;;5.30;46.20;;;;;;5055832;28;20157;-48
2021/12/20 08:11:01;;;;;;;1.00;0.43;;;5.20;46.40;;;;;;5055686;28;20730;-48
2021/12/20 08:13:31;;;;;;;7.13;0.95;;;5.30;46.50;;;;;;5038398;28;20169;-48
2021/12/20 08:15:58;;;;;;;1.10;0.40;;;5.40;46.50;;;;;;5055571;28;20173;-48
2021/12/20 08:18:26;;;;;;;8.73;1.33;;;5.40;46.40;;;;;;5038700;28;20170;-48
2021/12/20 08:20:53;;;;;;;1.00;0.45;;;5.40;46.30;;;;;;5054848;28;20203;-48
2021/12/20 08:23:20;;;;;;;1.58;0.88;;;5.40;46.40;;;;;;5055468;28;20164;-48
2021/12/20 08:25:48;;;;;;;5.28;1.60;;;5.50;46.50;;;;;;5054584;28;20251;-48
2021/12/20 08:28:15;;;;;;;1.60;0.50;;;5.60;46.50;;;;;;5055649;28;20157;-48
2021/12/20 08:30:43;;;;;;;1.65;0.70;;;5.60;46.50;;;;;;5055289;28;20177;-48
2021/12/20 08:33:12;;;;;;;1.23;0.75;;;5.70;46.50;;;;;;5055367;28;20284;-48
2021/12/20 08:35:40;;;;;;;1.48;0.80;;;5.70;46.50;;;;;;5054365;28;20520;-48
2021/12/20 08:38:07;;;;;;;1.20;0.70;;;5.80;46.40;;;;;;5054345;28;20235;-48
2021/12/20 08:40:34;;;;;;;1.75;0.60;;;5.80;46.20;;;;;;5037743;28;20614;-48
2021/12/20 08:43:02;;;;;;;1.70;1.05;;;5.80;46.20;;;;;;5055219;28;20235;-48
2021/12/20 08:45:30;;;;;;;1.63;1.17;;;5.80;46.20;;;;;;5054562;28;20602;-48
2021/12/20 08:47:58;;;;;;;1.55;0.75;;;5.80;46.20;;;;;;5043951;28;20249;-48
2021/12/20 08:50:25;;;;;;;1.25;0.60;;;5.90;46.30;;;;;;5017826;28;20493;-48
2021/12/20 08:52:53;;;;;;;3.30;1.75;;;5.90;46.30;;;;;;5035071;28;20166;-48
2021/12/20 08:55:21;;;;;;;1.23;0.50;;;5.90;46.30;;;;;;5001822;28;20181;-48
2021/12/20 08:57:49;;;;;;;1.60;0.55;;;4.90;45.80;;;;;;5017801;28;20200;-48
2021/12/20 09:00:23;;;;;;;1.63;0.80;;;5.90;46.30;;;;;;5001520;28;20185;-48
2021/12/20 09:02:51;;;;;;;7.93;2.47;;;5.90;45.90;;;;;;5002532;28;20192;-48
2021/12/20 09:05:19;;;;;;;1.92;1.50;;;5.80;46.10;;;;;;5017573;28;20686;-48
2021/12/20 09:07:48;;;;;;;1.77;0.70;;;5.80;46.30;;;;;;5001674;28;20479;-48
2021/12/20 09:10:16;;;;;;;1.48;0.77;;;5.60;46.60;;;;;;5001618;28;20174;-48
2021/12/20 09:12:45;;;;;;;11.05;1.73;;;5.70;46.80;;;;;;5034801;28;20193;-48
2021/12/20 09:15:16;;;;;;;6.57;0.75;;;5.70;46.70;;;;;;5034771;28;20184;-48
2021/12/20 09:17:46;;;;;;;2.15;1.05;;;5.70;46.80;;;;;;5018132;28;20173;-48
2021/12/20 09:20:15;;;;;;;1.67;0.73;;;5.80;46.80;;;;;;5034935;28;20177;-48
2021/12/20 09:22:50;;;;;;;1.60;0.80;;;5.80;46.70;;;;;;5017758;28;20579;-48
2021/12/20 09:25:26;;;;;;;4.20;1.15;;;5.90;46.70;;;;;;5034763;28;20169;-48
2021/12/20 09:27:55;;;;;;;1.00;0.43;;;6.00;46.50;;;;;;5002249;28;20480;-48
2021/12/20 09:30:24;;;;;;;4.13;3.00;;;6.10;46.70;;;;;;5017313;28;20228;-48
2021/12/20 09:32:51;;;;;;;1.52;0.85;;;6.20;46.60;;;;;;5034650;28;20201;-48
2021/12/20 09:35:19;;;;;;;3.40;1.33;;;6.20;46.00;;;;;;5034592;28;20604;-49
2021/12/20 09:37:50;;;;;;;1.08;0.47;;;6.20;46.20;;;;;;5001184;28;20174;-48
2021/12/20 09:40:18;;;;;;;2.08;0.95;;;6.20;46.30;;;;;;5034800;28;20170;-48
2021/12/20 09:42:52;;;;;;;2.45;0.95;;;6.30;46.10;;;;;;5034398;28;20186;-48
2021/12/20 09:45:24;;;;;;;3.42;1.60;;;6.30;46.00;;;;;;5017302;28;20165;-48
2021/12/20 09:47:52;;;;;;;1.70;1.15;;;6.30;46.20;;;;;;5033567;28;20546;-48
2021/12/20 09:50:19;;;;;;;1.10;0.65;;;6.40;45.90;;;;;;5053486;28;20610;-49
2021/12/20 09:52:47;;;;;;;1.83;0.60;;;6.40;45.90;;;;;;5053591;28;20227;-48
2021/12/20 09:55:15;;;;;;;3.28;1.08;;;6.30;45.80;;;;;;5054493;28;20193;-48
2021/12/20 09:57:47;;;;;;;2.00;0.88;;;6.50;46.10;;;;;;5037388;28;20170;-48
2021/12/20 10:00:18;;;;;;;1.45;0.40;;;6.40;45.90;;;;;;5054442;28;20184;-48
2021/12/20 10:02:47;;;;;;;1.10;0.40;;;6.40;46.00;;;;;;5053522;28;20177;-48
2021/12/20 10:05:17;;;;;;;1.15;0.65;;;6.50;45.50;;;;;;5054432;28;20162;-49
2021/12/20 10:07:55;;;;;;;2.65;1.50;;;6.50;45.60;;;;;;5021237;28;20158;-49
2021/12/20 10:10:55;;;;;;;4.70;1.20;;;6.50;45.70;;;;;;5038104;28;20169;-48
2021/12/20 10:13:35;;;;;;;1.73;0.63;;;6.60;45.70;;;;;;5042592;28;20630;-48
2021/12/20 10:16:13;;;;;;;1.50;0.70;;;6.60;45.30;;;;;;5053500;28;20188;-48
2021/12/20 10:18:41;;;;;;;1.08;0.55;;;6.50;45.60;;;;;;5053550;28;20169;-48
2021/12/20 10:21:09;;;;;;;3.42;0.77;;;6.50;45.60;;;;;;5053409;28;20260;-48
2021/12/20 10:23:44;;;;;;;1.30;0.45;;;6.50;45.70;;;;;;5054176;28;20158;-48
2021/12/20 10:26:20;;;;;;;2.03;1.13;;;6.60;44.90;;;;;;5037416;28;20166;-48
2021/12/20 10:28:54;;;;;;;2.40;1.40;;;6.50;45.60;;;;;;5055031;28;20160;-48
2021/12/20 10:31:26;;;;;;;1.40;1.15;;;6.60;45.50;;;;;;5056863;28;20154;-48
2021/12/20 10:34:03;;;;;;;1.95;1.65;;;6.60;45.50;;;;;;5040731;28;20173;-48
2021/12/20 10:36:32;;;;;;;3.05;1.05;;;6.60;45.20;;;;;;5040899;28;20549;-48
2021/12/20 10:39:04;;;;;;;1.52;1.15;;;6.60;45.20;;;;;;5056799;28;20248;-48
2021/12/20 10:41:37;;;;;;;3.38;0.70;;;6.60;44.90;;;;;;5040372;28;20190;-47
2021/12/20 10:44:24;;;;;;;2.65;0.77;;;6.60;45.20;;;;;;5056527;28;20299;-48
2021/12/20 10:46:53;;;;;;;5.13;1.10;;;6.70;45.20;;;;;;5054629;28;20602;-48
2021/12/20 10:49:28;;;;;;;3.83;1.25;;;6.70;45.30;;;;;;5037479;28;20281;-48
2021/12/20 10:51:55;;;;;;;1.80;1.20;;;6.60;45.10;;;;;;5020695;28;20600;-48
2021/12/20 10:54:30;;;;;;;1.02;0.40;;;6.60;45.40;;;;;;5020005;28;20169;-48
2021/12/20 10:57:06;;;;;;;1.20;0.55;;;6.60;45.20;;;;;;5004638;28;20545;-48
2021/12/20 10:59:36;;;;;;;1.10;0.50;;;6.60;45.40;;;;;;5037319;28;20212;-48
2021/12/20 11:03:09;;;;;;;1.25;0.55;;;6.60;45.60;;;;;;5020528;28;20284;-48
2021/12/20 11:05:25;;;;;;;2.22;0.70;;;6.70;45.50;;;;;;5036867;28;20300;-48
2021/12/20 11:10:39;;;;;;;2.03;1.25;;;6.80;44.60;;;;;;5036968;28;20220;-48
2021/12/20 11:13:16;;;;;;;2.05;0.98;;;6.80;44.90;;;;;;5019761;28;20188;-48
2021/12/20 11:15:44;;;;;;;1.77;0.90;;;6.80;45.30;;;;;;5037168;28;20249;-48
2021/12/20 11:18:16;;;;;;;3.90;0.88;;;6.90;45.30;;;;;;5037006;28;20556;-48
2021/12/20 11:20:44;;;;;;;3.30;2.13;;;6.80;44.70;;;;;;5036954;28;20253;-48
2021/12/20 11:23:12;;;;;;;1.88;1.10;;;6.80;45.20;;;;;;5036896;28;20229;-48
2021/12/20 11:25:43;;;;;;;2.67;0.85;;;6.80;44.80;;;;;;5036602;28;20232;-48
2021/12/20 11:28:10;;;;;;;1.33;0.90;;;6.70;44.70;;;;;;5004123;28;20170;-48
2021/12/20 11:30:37;;;;;;;1.40;0.70;;;6.80;45.40;;;;;;5036593;28;20190;-48
2021/12/20 11:33:05;;;;;;;1.30;0.60;;;6.90;45.30;;;;;;5036618;28;20201;-48
2021/12/20 11:35:33;;;;;;;1.80;1.50;;;7.00;45.10;;;;;;5036613;28;20219;-47
2021/12/20 11:38:00;;;;;;;1.20;0.70;;;7.10;45.10;;;;;;5036647;28;20192;-48
2021/12/20 11:40:29;;;;;;;2.13;0.50;;;7.10;44.70;;;;;;5018142;28;20166;-48
2021/12/20 11:42:57;;;;;;;2.25;1.15;;;7.00;44.10;;;;;;5036516;28;20205;-48
2021/12/20 11:45:25;;;;;;;1.58;0.63;;;7.00;44.70;;;;;;5003030;28;20173;-48
2021/12/20 11:48:13;;;;;;;1.15;0.47;;;7.00;44.70;;;;;;5036205;28;20300;-48
2021/12/20 11:50:45;;;;;;;2.90;1.08;;;7.00;44.70;;;;;;5018815;28;20170;-48
2021/12/20 11:53:16;;;;;;;1.75;1.33;;;7.00;44.50;;;;;;4987452;28;20542;-48
2021/12/20 11:55:50;;;;;;;1.30;0.55;;;7.10;45.40;;;;;;5003307;28;20170;-48
2021/12/20 11:58:27;;;;;;;4.45;1.17;;;7.30;44.70;;;;;;5002467;28;20166;-48
2021/12/20 12:00:57;;;;;;;4.45;1.00;;;7.40;44.80;;;;;;5019062;28;20174;-48
2021/12/20 12:03:27;;;;;;;1.42;0.95;;;7.60;44.80;;;;;;5002785;28;20166;-48
2021/12/20 12:05:57;;;;;;;3.08;1.00;;;7.60;44.70;;;;;;5018520;28;20166;-48
2021/12/20 12:08:38;;;;;;;1.10;0.50;;;7.70;44.10;;;;;;5002170;28;20265;-49
2021/12/20 12:11:08;;;;;;;1.88;0.73;;;7.70;43.70;;;;;;5035978;28;20157;-48
2021/12/20 12:13:49;;;;;;;1.55;0.55;;;7.60;43.60;;;;;;5035812;28;20173;-48
2021/12/20 12:16:30;;;;;;;2.83;1.30;;;7.50;43.30;;;;;;5035620;28;20182;-48
2021/12/20 12:19:02;;;;;;;1.85;1.13;;;7.40;43.90;;;;;;4989333;28;20223;-48
2021/12/20 12:21:39;;;;;;;3.17;0.82;;;7.30;43.70;;;;;;5035647;28;20186;-48
2021/12/20 12:24:12;;;;;;;1.58;0.75;;;7.40;44.20;;;;;;5018195;28;20614;-49
2021/12/20 12:26:49;;;;;;;1.60;0.75;;;7.40;44.10;;;;;;5035574;28;20158;-48
2021/12/20 12:29:23;;;;;;;4.88;1.33;;;7.40;44.40;;;;;;5002067;28;20158;-49
2021/12/20 12:32:00;;;;;;;2.40;1.35;;;7.50;44.50;;;;;;5001764;28;20260;-48
2021/12/20 12:34:41;;;;;;;1.83;1.05;;;7.50;44.50;;;;;;5035411;28;20224;-48
2021/12/20 12:37:34;;;;;;;1.40;0.85;;;7.50;43.90;;;;;;5018439;28;20188;-48
2021/12/20 12:40:25;;;;;;;2.30;0.55;;;7.40;44.40;;;;;;5003291;28;20274;-49
2021/12/20 12:42:57;;;;;;;1.25;0.60;;;7.50;44.50;;;;;;5035183;28;20190;-49
2021/12/20 12:45:51;;;;;;;1.40;0.80;;;7.50;44.70;;;;;;5035177;28;20154;-48
2021/12/20 12:48:40;;;;;;;1.95;0.82;;;7.50;44.10;;;;;;5035200;28;20240;-48
2021/12/20 12:51:26;;;;;;;2.00;0.60;;;7.40;44.30;;;;;;5001819;28;20162;-49
2021/12/20 12:53:56;;;;;;;1.35;0.82;;;7.40;44.30;;;;;;5035029;28;20530;-48
2021/12/20 12:56:26;;;;;;;3.58;1.08;;;7.40;44.30;;;;;;5035627;28;20169;-49
2021/12/20 12:59:12;;;;;;;1.63;0.50;;;7.50;44.60;;;;;;5017733;28;20177;-48
2021/12/20 13:01:47;;;;;;;1.20;0.50;;;7.20;44.10;;;;;;5017471;28;20527;-48
2021/12/20 13:04:15;;;;;;;2.50;1.00;;;7.50;44.40;;;;;;5035363;28;20611;-49
2021/12/20 13:06:43;;;;;;;1.70;0.80;;;7.50;44.30;;;;;;5001707;28;20206;-48
2021/12/20 13:09:10;;;;;;;1.90;1.02;;;7.60;44.20;;;;;;5034801;28;20201;-48
2021/12/20 13:11:38;;;;;;;4.60;0.65;;;7.70;44.10;;;;;;5035614;28;20476;-48
2021/12/20 13:14:13;;;;;;;1.70;1.35;;;7.70;44.10;;;;;;5034708;28;20243;-48
2021/12/20 13:16:59;;;;;;;7.78;1.15;;;7.70;43.70;;;;;;5002830;28;20188;-48
2021/12/20 13:19:36;;;;;;;2.30;1.20;;;7.80;43.80;;;;;;5018265;28;20544;-48
2021/12/20 13:22:05;;;;;;;1.20;0.60;;;7.80;44.00;;;;;;5017711;28;20240;-48
2021/12/20 13:24:33;;;;;;;1.50;0.70;;;7.80;43.90;;;;;;5001286;28;20476;-48
2021/12/20 13:27:08;;;;;;;2.20;0.60;;;7.80;43.80;;;;;;5034622;28;20592;-48
2021/12/20 13:29:38;;;;;;;1.80;0.70;;;7.80;43.50;;;;;;5034801;28;20158;-48